createdAt,value
2023-04-21T00:00:45.302Z,30.40
2023-04-21T00:03:13.201Z,32.70
2023-04-21T00:05:43.541Z,33.60
2023-04-21T00:08:11.308Z,35.73
2023-04-21T00:10:39.052Z,31.30
2023-04-21T00:13:06.833Z,32.50
2023-04-21T00:15:34.701Z,38.43
2023-04-21T00:18:03.767Z,35.97
2023-04-21T00:20:31.744Z,38.73
2023-04-21T00:23:01.332Z,28.73
2023-04-21T00:25:29.065Z,31.43
2023-04-21T00:27:56.775Z,34.87
2023-04-21T00:30:24.601Z,31.50
2023-04-21T00:32:52.409Z,31.50
2023-04-21T00:35:20.157Z,37.03
2023-04-21T00:37:47.883Z,38.83
2023-04-21T00:40:17.015Z,32.47
2023-04-21T00:42:44.743Z,30.57
2023-04-21T00:45:14.772Z,29.33
2023-04-21T00:47:42.526Z,29.23
2023-04-21T00:50:11.445Z,32.17
2023-04-21T00:52:40.838Z,36.77
2023-04-21T00:55:09.486Z,31.33
2023-04-21T00:57:38.886Z,35.93
2023-04-21T01:00:08.950Z,33.47
2023-04-21T01:02:37.939Z,36.77
2023-04-21T01:05:08.936Z,27.87
2023-04-21T01:07:36.875Z,28.93
2023-04-21T01:10:04.955Z,33.47
2023-04-21T01:12:32.738Z,28.70
2023-04-21T01:15:01.833Z,37.30
2023-04-21T01:17:31.311Z,33.53
2023-04-21T01:19:59.448Z,39.63
2023-04-21T01:22:29.055Z,33.00
2023-04-21T01:24:56.840Z,29.37
2023-04-21T01:27:26.860Z,37.90
2023-04-21T01:29:54.653Z,38.50
2023-04-21T01:32:25.273Z,36.47
2023-04-21T01:34:53.667Z,27.57
2023-04-21T01:37:23.366Z,30.70
2023-04-21T01:39:55.717Z,34.03
2023-04-21T01:42:25.716Z,31.17
2023-04-21T01:44:54.637Z,27.70
2023-04-21T01:47:23.109Z,31.20
2023-04-21T01:49:50.854Z,32.53
2023-04-21T01:52:18.613Z,28.33
2023-04-21T01:54:46.388Z,33.40
2023-04-21T01:57:15.607Z,26.40
2023-04-21T01:59:43.431Z,29.00
2023-04-21T02:02:11.253Z,26.93
2023-04-21T02:04:39.195Z,27.57
2023-04-21T02:07:07.142Z,29.13
2023-04-21T02:09:34.893Z,29.07
2023-04-21T02:12:03.785Z,26.80
2023-04-21T02:14:32.890Z,26.10
2023-04-21T02:17:03.052Z,20.50
2023-04-21T02:19:31.308Z,21.00
2023-04-21T02:21:59.052Z,28.00
2023-04-21T02:24:27.051Z,27.63
2023-04-21T02:26:54.820Z,21.63
2023-04-21T02:29:22.471Z,25.77
2023-04-21T02:32:03.091Z,27.50
2023-04-21T02:34:33.351Z,27.30
2023-04-21T02:37:01.051Z,27.60
2023-04-21T02:39:28.812Z,23.67
2023-04-21T02:41:56.897Z,23.30
2023-04-21T02:44:24.631Z,23.07
2023-04-21T02:46:53.880Z,22.10
2023-04-21T02:49:21.972Z,24.13
2023-04-21T02:51:49.800Z,26.57
2023-04-21T02:54:17.493Z,22.90
2023-04-21T02:56:45.229Z,25.30
2023-04-21T02:59:16.464Z,20.93
2023-04-21T03:01:44.604Z,25.67
2023-04-21T03:04:14.237Z,20.63
2023-04-21T03:06:41.995Z,30.30
2023-04-21T03:09:09.925Z,22.17
2023-04-21T03:11:37.695Z,24.47
2023-04-21T03:14:05.399Z,22.77
2023-04-21T03:16:33.286Z,22.07
2023-04-21T03:19:01.206Z,24.10
2023-04-21T03:21:31.431Z,25.83
2023-04-21T03:23:59.220Z,23.90
2023-04-21T03:26:26.983Z,20.03
2023-04-21T03:28:54.728Z,24.93
2023-04-21T03:31:22.504Z,23.90
2023-04-21T03:33:50.220Z,25.37
2023-04-21T03:36:18.004Z,18.97
2023-04-21T03:38:47.140Z,19.80
2023-04-21T03:41:14.954Z,24.63
2023-04-21T03:43:43.071Z,27.47
2023-04-21T03:46:18.751Z,21.77
2023-04-21T03:48:46.783Z,22.57
2023-04-21T03:51:14.680Z,26.10
2023-04-21T03:53:42.555Z,21.83
2023-04-21T03:56:12.010Z,28.43
2023-04-21T03:58:39.784Z,22.27
2023-04-21T04:01:08.121Z,21.60
2023-04-21T04:03:36.105Z,21.13
2023-04-21T04:06:04.237Z,19.23
2023-04-21T04:08:32.073Z,23.73
2023-04-21T04:10:59.823Z,21.50
2023-04-21T04:13:29.399Z,24.93
2023-04-21T04:15:57.905Z,24.93
2023-04-21T04:18:25.909Z,22.77
2023-04-21T04:20:53.595Z,20.50
2023-04-21T04:23:21.944Z,23.10
2023-04-21T04:25:49.715Z,19.87
2023-04-21T04:28:17.377Z,22.10
2023-04-21T04:30:46.484Z,18.70
2023-04-21T04:33:14.242Z,18.10
2023-04-21T04:35:41.919Z,19.17
2023-04-21T04:38:09.570Z,25.00
2023-04-21T04:40:37.290Z,18.43
2023-04-21T04:43:05.030Z,17.77
2023-04-21T04:45:33.170Z,18.43
2023-04-21T04:48:02.242Z,15.13
2023-04-21T04:50:30.044Z,19.87
2023-04-21T04:52:57.843Z,19.33
2023-04-21T04:55:25.648Z,16.87
2023-04-21T04:57:53.450Z,17.77
2023-04-21T05:00:21.571Z,17.23
2023-04-21T05:02:49.406Z,17.90
2023-04-21T05:05:18.619Z,19.23
2023-04-21T05:07:46.373Z,23.80
2023-04-21T05:10:14.168Z,18.60
2023-04-21T05:12:41.865Z,17.83
2023-04-21T05:15:10.964Z,17.40
2023-04-21T05:17:38.754Z,19.10
2023-04-21T05:20:07.285Z,20.00
2023-04-21T05:22:39.376Z,19.03
2023-04-21T05:25:08.098Z,19.97
2023-04-21T05:27:35.922Z,18.27
2023-04-21T05:30:03.716Z,22.23
2023-04-21T05:32:31.525Z,16.63
2023-04-21T05:34:59.691Z,17.17
2023-04-21T05:37:27.471Z,17.63
2023-04-21T05:39:56.649Z,16.40
2023-04-21T05:42:24.405Z,18.83
2023-04-21T05:44:52.158Z,18.30
2023-04-21T05:47:19.893Z,16.27
2023-04-21T05:49:50.395Z,16.83
2023-04-21T05:52:18.599Z,19.50
2023-04-21T05:54:46.302Z,14.47
2023-04-21T05:57:16.243Z,18.17
2023-04-21T05:59:43.958Z,18.87
2023-04-21T06:02:11.772Z,20.57
2023-04-21T06:04:39.834Z,13.97
2023-04-21T06:07:08.211Z,17.77
2023-04-21T06:09:36.274Z,17.50
2023-04-21T06:12:04.105Z,14.97
2023-04-21T06:14:33.249Z,12.87
2023-04-21T06:17:01.074Z,17.57
2023-04-21T06:19:28.876Z,15.50
2023-04-21T06:21:57.732Z,18.57
2023-04-21T06:24:26.161Z,15.43
2023-04-21T06:26:54.007Z,17.27
2023-04-21T06:29:21.823Z,22.73
2023-04-21T06:31:50.965Z,15.73
2023-04-21T06:34:20.248Z,19.43
2023-04-21T06:36:48.226Z,18.37
2023-04-21T06:39:15.962Z,18.67
2023-04-21T06:41:43.885Z,18.90
2023-04-21T06:44:13.959Z,15.43
2023-04-21T06:46:41.888Z,21.00
2023-04-21T06:49:11.114Z,19.60
2023-04-21T06:51:38.917Z,16.07
2023-04-21T06:54:06.998Z,16.67
2023-04-21T06:56:34.698Z,20.00
2023-04-21T06:59:02.430Z,16.07
2023-04-21T07:01:30.341Z,18.57
2023-04-21T07:03:58.109Z,17.63
2023-04-21T07:06:27.952Z,18.77
2023-04-21T07:08:55.639Z,15.33
2023-04-21T07:11:23.378Z,20.60
2023-04-21T07:13:51.100Z,13.90
2023-04-21T07:16:18.809Z,21.83
2023-04-21T07:18:46.656Z,22.97
2023-04-21T07:21:14.392Z,19.27
2023-04-21T07:23:43.582Z,17.00
2023-04-21T07:26:11.464Z,14.20
2023-04-21T07:28:40.699Z,19.30
2023-04-21T07:31:08.479Z,17.97
2023-04-21T07:33:36.635Z,15.03
2023-04-21T07:36:04.649Z,19.53
2023-04-21T07:38:32.406Z,16.93
2023-04-21T07:41:01.523Z,22.80
2023-04-21T07:43:31.023Z,17.57
2023-04-21T07:45:58.868Z,16.90
2023-04-21T07:48:26.704Z,17.03
2023-04-21T07:50:54.505Z,18.60
2023-04-21T07:53:22.487Z,19.60
2023-04-21T07:55:50.257Z,18.60
2023-04-21T07:58:19.307Z,18.67
2023-04-21T08:00:47.010Z,14.07
2023-04-21T08:03:15.021Z,14.97
2023-04-21T08:05:43.092Z,19.70
2023-04-21T08:08:11.332Z,18.67
2023-04-21T08:10:39.063Z,16.80
2023-04-21T08:13:06.844Z,15.90
2023-04-21T08:15:36.156Z,26.93
2023-04-21T08:18:04.018Z,21.60
2023-04-21T08:20:31.980Z,20.27
2023-04-21T08:22:59.710Z,18.40
2023-04-21T08:25:27.463Z,22.60
2023-04-21T08:27:55.246Z,21.00
2023-04-21T08:30:23.092Z,19.80
2023-04-21T08:32:52.247Z,19.80
2023-04-21T08:35:20.083Z,16.80
2023-04-21T08:37:48.576Z,20.83
2023-04-21T08:40:16.812Z,17.03
2023-04-21T08:42:44.549Z,17.63
2023-04-21T08:45:12.734Z,19.80
2023-04-21T08:47:42.082Z,16.63
2023-04-21T08:50:14.315Z,17.00
2023-04-21T08:52:42.050Z,19.67
2023-04-21T08:55:11.069Z,19.00
2023-04-21T08:57:38.743Z,21.60
2023-04-21T09:00:08.477Z,18.17
2023-04-21T09:03:00.253Z,18.50
2023-04-21T09:05:31.264Z,18.63
2023-04-21T09:08:09.263Z,17.63
2023-04-21T09:10:44.378Z,18.97
2023-04-21T09:13:12.083Z,17.27
2023-04-21T09:15:41.703Z,16.33
2023-04-21T09:18:14.426Z,17.80
2023-04-21T09:20:44.354Z,17.57
2023-04-21T09:23:12.530Z,14.47
2023-04-21T09:25:41.173Z,18.33
2023-04-21T09:28:09.288Z,17.20
2023-04-21T09:30:37.485Z,18.90
2023-04-21T09:33:13.348Z,21.37
2023-04-21T09:35:49.479Z,19.83
2023-04-21T09:38:17.565Z,17.97
2023-04-21T09:40:45.461Z,19.77
2023-04-21T09:43:13.149Z,20.17
2023-04-21T09:45:41.217Z,30.13
2023-04-21T09:48:10.648Z,21.40
2023-04-21T09:51:21.960Z,20.37
2023-04-21T09:53:27.930Z,20.37
2023-04-21T09:55:57.257Z,17.40
2023-04-21T09:58:29.118Z,22.57
2023-04-21T10:00:58.461Z,18.17
2023-04-21T10:03:29.239Z,20.90
2023-04-21T10:05:57.470Z,16.93
2023-04-21T10:08:25.199Z,14.33
2023-04-21T10:10:54.544Z,18.83
2023-04-21T10:13:22.585Z,14.17
2023-04-21T10:15:50.281Z,19.10
2023-04-21T10:18:19.272Z,20.07
2023-04-21T10:20:54.207Z,20.07
2023-04-21T10:23:32.983Z,20.87
2023-04-21T10:26:06.805Z,17.43
2023-04-21T10:28:45.581Z,20.73
2023-04-21T10:31:32.111Z,20.57
2023-04-21T10:34:16.417Z,17.40
2023-04-21T10:36:50.069Z,19.10
2023-04-21T10:39:27.789Z,18.87
2023-04-21T10:41:59.248Z,21.47
2023-04-21T10:44:30.019Z,21.67
2023-04-21T10:47:00.064Z,16.57
2023-04-21T10:49:28.989Z,21.30
2023-04-21T10:52:07.448Z,16.83
2023-04-21T10:54:43.514Z,18.53
2023-04-21T10:57:14.055Z,17.37
2023-04-21T10:59:41.943Z,21.50
2023-04-21T11:02:12.965Z,18.17
2023-04-21T11:04:45.287Z,18.33
2023-04-21T11:07:14.892Z,15.80
2023-04-21T11:09:44.526Z,21.97
2023-04-21T11:12:15.274Z,21.33
2023-04-21T11:14:46.323Z,19.13
2023-04-21T11:17:14.802Z,16.73
2023-04-21T11:19:42.939Z,20.30
2023-04-21T11:22:10.609Z,16.97
2023-04-21T11:24:38.375Z,19.13
2023-04-21T11:27:09.868Z,22.77
2023-04-21T11:29:39.268Z,17.10
2023-04-21T11:32:08.092Z,19.37
2023-04-21T11:34:38.130Z,17.07
2023-04-21T11:37:06.852Z,16.30
2023-04-21T11:39:34.665Z,20.53
2023-04-21T11:42:02.794Z,22.63
2023-04-21T11:44:35.008Z,19.43
2023-04-21T11:47:13.702Z,17.33
2023-04-21T11:49:46.321Z,16.10
2023-04-21T11:52:20.844Z,18.80
2023-04-21T11:54:48.888Z,22.30
2023-04-21T11:57:19.572Z,15.40
2023-04-21T11:59:48.265Z,15.80
2023-04-21T12:02:25.224Z,21.97
2023-04-21T12:05:03.932Z,21.77
2023-04-21T12:07:32.944Z,19.27
2023-04-21T12:10:01.656Z,21.90
2023-04-21T12:12:31.100Z,23.73
2023-04-21T12:14:59.257Z,20.83
2023-04-21T12:17:36.519Z,20.23
2023-04-21T12:20:07.317Z,18.17
2023-04-21T12:22:35.201Z,21.50
2023-04-21T12:25:02.964Z,15.40
2023-04-21T12:27:30.998Z,19.10
2023-04-21T12:29:58.720Z,12.73
2023-04-21T12:32:27.882Z,18.10
2023-04-21T12:34:56.189Z,17.17
2023-04-21T12:37:23.889Z,18.00
2023-04-21T12:39:51.578Z,13.83
2023-04-21T12:42:19.375Z,17.37
2023-04-21T12:44:47.051Z,15.43
2023-04-21T12:47:14.830Z,15.43
2023-04-21T12:49:44.066Z,16.10
2023-04-21T12:52:11.749Z,19.17
2023-04-21T12:54:39.547Z,14.20
2023-04-21T12:57:08.577Z,12.17
2023-04-21T12:59:36.269Z,18.03
2023-04-21T13:02:04.108Z,15.03
2023-04-21T13:04:32.525Z,13.67
2023-04-21T13:07:01.876Z,18.63
2023-04-21T13:09:29.900Z,11.10
2023-04-21T13:11:57.775Z,13.27
2023-04-21T13:14:25.608Z,12.17
2023-04-21T13:16:54.461Z,10.90
2023-04-21T13:19:22.208Z,11.97
2023-04-21T13:21:51.494Z,11.73
2023-04-21T13:24:22.696Z,12.80
2023-04-21T13:26:50.530Z,11.50
2023-04-21T13:29:18.304Z,10.67
2023-04-21T13:31:45.984Z,11.23
2023-04-21T13:34:13.670Z,36.40
2023-04-21T13:36:41.883Z,12.93
2023-04-21T13:39:10.469Z,9.40
2023-04-21T13:41:39.625Z,16.13
2023-04-21T13:44:07.582Z,10.73
2023-04-21T13:46:35.403Z,14.50
2023-04-21T13:49:03.450Z,8.53
2023-04-21T13:51:32.211Z,9.00
2023-04-21T13:54:00.073Z,7.80
2023-04-21T13:56:27.893Z,12.43
2023-04-21T13:58:57.095Z,12.87
2023-04-21T14:01:24.923Z,10.57
2023-04-21T14:03:54.047Z,14.27
2023-04-21T14:06:22.010Z,12.47
2023-04-21T14:08:49.733Z,9.90
2023-04-21T14:11:17.584Z,13.17
2023-04-21T14:14:00.868Z,11.70
2023-04-21T14:16:34.583Z,8.90
2023-04-21T14:19:02.396Z,10.27
2023-04-21T14:21:31.035Z,9.23
2023-04-21T14:23:58.990Z,9.03
2023-04-21T14:26:26.956Z,8.10
2023-04-21T14:28:54.603Z,34.80
2023-04-21T14:31:22.565Z,8.90
2023-04-21T14:33:51.739Z,6.87
2023-04-21T14:36:19.504Z,6.93
2023-04-21T14:38:47.527Z,12.00
2023-04-21T14:41:15.663Z,12.10
2023-04-21T14:43:43.490Z,16.30
2023-04-21T14:46:11.379Z,9.23
2023-04-21T14:48:39.562Z,12.73
2023-04-21T14:51:10.137Z,9.17
2023-04-21T14:53:37.886Z,13.47
2023-04-21T14:56:06.063Z,7.17
2023-04-21T14:58:33.973Z,10.43
2023-04-21T15:01:01.857Z,8.70
2023-04-21T15:03:29.938Z,7.90
2023-04-21T15:05:57.851Z,24.30
2023-04-21T15:08:27.700Z,6.63
2023-04-21T15:10:56.375Z,10.97
2023-04-21T15:13:24.441Z,11.50
2023-04-21T15:15:52.577Z,9.57
2023-04-21T15:18:20.912Z,21.23
2023-04-21T15:20:49.552Z,11.87
2023-04-21T15:23:17.580Z,6.97
2023-04-21T15:25:46.676Z,7.90
2023-04-21T15:28:14.422Z,8.80
2023-04-21T15:30:42.493Z,8.30
2023-04-21T15:33:11.598Z,12.40
2023-04-21T15:35:39.491Z,6.80
2023-04-21T15:38:07.336Z,9.30
2023-04-21T15:40:37.609Z,6.77
2023-04-21T15:43:13.102Z,11.53
2023-04-21T15:45:42.274Z,10.83
2023-04-21T15:48:10.086Z,10.60
2023-04-21T15:50:37.998Z,7.03
2023-04-21T15:53:06.217Z,9.87
2023-04-21T15:55:34.799Z,9.50
2023-04-21T15:58:02.615Z,8.97
2023-04-21T16:00:31.830Z,9.17
2023-04-21T16:02:59.735Z,5.70
2023-04-21T16:05:29.368Z,7.90
2023-04-21T16:07:57.199Z,15.10
2023-04-21T16:10:24.879Z,11.00
2023-04-21T16:12:52.719Z,27.53
2023-04-21T16:15:24.395Z,13.97
2023-04-21T16:17:54.295Z,12.73
2023-04-21T16:20:22.188Z,12.20
2023-04-21T16:22:50.348Z,7.90
2023-04-21T16:25:19.107Z,9.00
2023-04-21T16:27:46.945Z,12.07
2023-04-21T16:30:14.792Z,7.37
2023-04-21T16:32:42.541Z,15.93
2023-04-21T16:35:11.927Z,11.33
2023-04-21T16:37:40.547Z,16.07
2023-04-21T16:40:09.801Z,6.97
2023-04-21T16:42:37.847Z,6.47
2023-04-21T16:45:06.626Z,5.23
2023-04-21T16:47:40.426Z,6.97
2023-04-21T16:50:11.597Z,6.67
2023-04-21T16:52:39.364Z,5.27
2023-04-21T16:55:08.202Z,10.47
2023-04-21T16:57:36.168Z,9.37
2023-04-21T17:00:07.004Z,10.23
2023-04-21T17:02:35.189Z,11.90
2023-04-21T17:05:04.028Z,8.23
2023-04-21T17:07:33.149Z,12.60
2023-04-21T17:10:00.824Z,35.20
2023-04-21T17:12:28.676Z,15.67
2023-04-21T17:14:56.472Z,16.97
2023-04-21T17:17:24.356Z,8.33
2023-04-21T17:19:53.735Z,9.43
2023-04-21T17:22:21.471Z,8.70
2023-04-21T17:24:53.647Z,8.20
2023-04-21T17:27:22.083Z,10.30
2023-04-21T17:29:49.867Z,9.30
2023-04-21T17:32:17.713Z,8.30
2023-04-21T17:34:45.620Z,9.00
2023-04-21T17:37:13.359Z,8.73
2023-04-21T17:39:41.138Z,6.40
2023-04-21T17:42:10.233Z,8.17
2023-04-21T17:44:39.971Z,11.63
2023-04-21T17:47:08.929Z,10.47
2023-04-21T17:49:36.728Z,15.07
2023-04-21T17:52:04.693Z,11.97
2023-04-21T17:54:32.450Z,9.17
2023-04-21T17:57:01.579Z,13.13
2023-04-21T17:59:30.705Z,14.93
2023-04-21T18:01:59.137Z,14.03
2023-04-21T18:04:29.846Z,14.77
2023-04-21T18:06:58.914Z,11.00
2023-04-21T18:09:26.798Z,9.77
2023-04-21T18:11:54.555Z,15.77
2023-04-21T18:14:22.766Z,13.13
2023-04-21T18:16:51.879Z,25.30
2023-04-21T18:19:19.595Z,13.90
2023-04-21T18:21:47.310Z,15.10
2023-04-21T18:24:15.008Z,19.33
2023-04-21T18:26:42.845Z,14.93
2023-04-21T18:29:10.647Z,19.67
2023-04-21T18:31:39.324Z,15.77
2023-04-21T18:34:09.113Z,21.00
2023-04-21T18:36:38.463Z,15.93
2023-04-21T18:39:06.547Z,22.20
2023-04-21T18:41:34.242Z,13.50
2023-04-21T18:44:01.971Z,16.47
2023-04-21T18:46:29.780Z,21.17
2023-04-21T18:48:57.487Z,15.77
2023-04-21T18:51:31.021Z,11.00
2023-04-21T18:53:58.805Z,10.33
2023-04-21T18:56:26.581Z,13.10
2023-04-21T18:58:54.470Z,14.07
2023-04-21T19:01:22.260Z,10.00
2023-04-21T19:03:50.274Z,10.23
2023-04-21T19:06:18.239Z,11.13
2023-04-21T19:08:47.440Z,9.50
2023-04-21T19:11:15.851Z,11.87
2023-04-21T19:13:43.728Z,13.27
2023-04-21T19:16:11.659Z,13.20
2023-04-21T19:18:39.457Z,5.83
2023-04-21T19:21:10.291Z,6.83
2023-04-21T19:23:38.081Z,5.90
2023-04-21T19:26:08.664Z,5.03
2023-04-21T19:28:36.655Z,3.87
2023-04-21T19:31:04.553Z,3.13
2023-04-21T19:33:32.297Z,5.53
2023-04-21T19:36:00.097Z,4.77
2023-04-21T19:38:28.204Z,5.77
2023-04-21T19:40:56.981Z,4.30
2023-04-21T19:43:26.143Z,6.07
2023-04-21T19:45:53.959Z,2.90
2023-04-21T19:48:21.974Z,5.53
2023-04-21T19:50:49.797Z,5.53
2023-04-21T19:53:18.677Z,11.37
2023-04-21T19:55:46.848Z,4.23
2023-04-21T19:58:19.802Z,5.77
2023-04-21T20:00:57.548Z,3.60
2023-04-21T20:03:25.368Z,4.43
2023-04-21T20:05:53.165Z,7.90
2023-04-21T20:08:21.268Z,4.33
2023-04-21T20:10:48.959Z,8.30
2023-04-21T20:13:16.723Z,4.97
2023-04-21T20:15:44.521Z,12.07
2023-04-21T20:18:13.781Z,10.77
2023-04-21T20:20:41.582Z,4.53
2023-04-21T20:23:09.385Z,5.27
2023-04-21T20:25:37.211Z,4.37
2023-04-21T20:28:04.903Z,4.63
2023-04-21T20:30:32.692Z,9.50
2023-04-21T20:33:00.544Z,7.50
2023-04-21T20:35:30.561Z,6.40
2023-04-21T20:37:58.496Z,5.37
2023-04-21T20:40:26.284Z,5.50
2023-04-21T20:42:53.955Z,6.33
2023-04-21T20:45:22.488Z,4.80
2023-04-21T20:47:50.214Z,7.33
2023-04-21T20:50:18.418Z,5.97
2023-04-21T20:52:48.068Z,5.77
2023-04-21T20:55:15.958Z,4.83
2023-04-21T20:57:43.815Z,3.40
2023-04-21T21:00:12.306Z,4.50
2023-04-21T21:02:41.128Z,5.37
2023-04-21T21:05:09.516Z,5.97
2023-04-21T21:07:37.261Z,6.43
2023-04-21T21:10:08.134Z,6.07
2023-04-21T21:12:35.898Z,8.33
2023-04-21T21:15:04.189Z,7.27
2023-04-21T21:17:31.950Z,8.03
2023-04-21T21:19:59.797Z,5.07
2023-04-21T21:22:28.174Z,5.27
2023-04-21T21:24:55.839Z,6.57
2023-04-21T21:27:25.041Z,5.57
2023-04-21T21:29:52.697Z,6.20
2023-04-21T21:32:20.633Z,5.77
2023-04-21T21:34:49.622Z,5.87
2023-04-21T21:37:17.347Z,7.27
2023-04-21T21:39:45.095Z,8.13
2023-04-21T21:42:12.772Z,7.40
2023-04-21T21:44:41.782Z,7.23
2023-04-21T21:47:09.477Z,7.70
2023-04-21T21:49:38.414Z,7.77
2023-04-21T21:52:06.244Z,6.33
2023-04-21T21:54:34.001Z,6.50
2023-04-21T21:57:02.006Z,6.70
2023-04-21T21:59:29.796Z,6.80
2023-04-21T22:01:59.041Z,9.10
2023-04-21T22:04:26.916Z,8.53
2023-04-21T22:06:54.669Z,10.50
2023-04-21T22:09:22.423Z,8.50
2023-04-21T22:11:50.446Z,10.03
2023-04-21T22:14:23.259Z,9.93
2023-04-21T22:16:51.294Z,11.83
2023-04-21T22:19:20.455Z,12.80
2023-04-21T22:21:48.382Z,10.00
2023-04-21T22:24:16.244Z,10.23
2023-04-21T22:26:44.138Z,11.17
2023-04-21T22:29:11.924Z,10.80
2023-04-21T22:31:39.751Z,13.20
2023-04-21T22:34:07.467Z,9.50
2023-04-21T22:36:36.535Z,11.97
2023-04-21T22:39:04.901Z,11.27
2023-04-21T22:41:32.899Z,14.03
2023-04-21T22:44:00.578Z,10.90
2023-04-21T22:46:31.947Z,14.43
2023-04-21T22:48:59.996Z,13.27
2023-04-21T22:51:29.782Z,13.30
2023-04-21T22:53:59.328Z,8.60
2023-04-21T22:56:27.114Z,10.70
2023-04-21T22:58:54.787Z,10.93
2023-04-21T23:01:22.743Z,12.23
2023-04-21T23:03:50.714Z,11.17
2023-04-21T23:06:18.516Z,10.70
2023-04-21T23:08:46.172Z,12.80
2023-04-21T23:11:15.435Z,9.67
2023-04-21T23:13:43.114Z,13.00
2023-04-21T23:16:11.229Z,10.13
2023-04-21T23:18:39.034Z,12.17
2023-04-21T23:21:06.920Z,15.90
2023-04-21T23:23:34.686Z,13.67
2023-04-21T23:26:02.428Z,12.20
2023-04-21T23:28:31.653Z,12.23
2023-04-21T23:30:59.377Z,13.20
2023-04-21T23:33:27.062Z,13.20
2023-04-21T23:35:56.161Z,14.87
2023-04-21T23:38:23.958Z,13.50
2023-04-21T23:40:51.759Z,13.87
2023-04-21T23:43:19.601Z,13.40
2023-04-21T23:45:48.740Z,15.43
2023-04-21T23:48:16.501Z,16.43
2023-04-21T23:50:44.642Z,13.57
2023-04-21T23:53:12.370Z,16.37
2023-04-21T23:55:40.216Z,14.07
2023-04-21T23:58:08.021Z,14.07
